DAH2006 DAAG-LEMD
Flight info
| Callsign | DAH2006 |
|---|---|
| Flight time | N/A |
| Altitude | 40000 |
| Route | SADAF1C SADAF L45 VLC N733 CLS DCT WALLY DCT CATON DCT CENTA DCT PRADO |
| Aircraft | A35K/H-SDE2E3GHIJ3J4J5LM1ORWXY/LB1D1 |
Departure
| Time | 2026-04-29 20:32 |
|---|---|
| Airport | Houari Boumediene Airport (DAAG) |
Arrival
| Time | N/A |
|---|---|
| Airport | Adolfo Suárez Madrid–Barajas Airport (LEMD) |
| Time | Latitude | Longitude | Altitude | Speed | Heading |
|---|---|---|---|---|---|
| 2026-04-29 20:17 | 36.69554 | 3.20239 | 76 ft | 0 kts | 1° |
| 2026-04-29 20:21 | 36.69543 | 3.20239 | 65 ft | 4 kts | 1° |
| 2026-04-29 20:21 | 36.69516 | 3.20239 | 65 ft | 4 kts | 0° |
| 2026-04-29 20:22 | 36.69489 | 3.20238 | 67 ft | 3 kts | 0° |
| 2026-04-29 20:22 | 36.69468 | 3.20234 | 67 ft | 4 kts | 41° |
| 2026-04-29 20:22 | 36.69456 | 3.20208 | 65 ft | 4 kts | 80° |
| 2026-04-29 20:22 | 36.69453 | 3.20175 | 65 ft | 4 kts | 90° |
| 2026-04-29 20:23 | 36.69454 | 3.20154 | 76 ft | 0 kts | 92° |
| 2026-04-29 20:27 | 36.69453 | 3.20164 | 76 ft | 3 kts | 92° |
| 2026-04-29 20:27 | 36.69452 | 3.20189 | 73 ft | 5 kts | 94° |
| 2026-04-29 20:27 | 36.69447 | 3.20278 | 69 ft | 10 kts | 92° |
| 2026-04-29 20:27 | 36.69446 | 3.20379 | 69 ft | 13 kts | 91° |
| 2026-04-29 20:28 | 36.69443 | 3.20505 | 76 ft | 16 kts | 91° |
| 2026-04-29 20:28 | 36.69440 | 3.20620 | 69 ft | 13 kts | 91° |
| 2026-04-29 20:28 | 36.69437 | 3.20739 | 65 ft | 6 kts | 91° |
| 2026-04-29 20:28 | 36.69437 | 3.20751 | 68 ft | 3 kts | 91° |
| 2026-04-29 20:29 | 36.69436 | 3.20793 | 62 ft | 7 kts | 91° |
| 2026-04-29 20:29 | 36.69429 | 3.20864 | 70 ft | 9 kts | 114° |
| 2026-04-29 20:29 | 36.69369 | 3.20897 | 71 ft | 11 kts | 168° |
| 2026-04-29 20:29 | 36.69286 | 3.20923 | 76 ft | 14 kts | 163° |
| 2026-04-29 20:30 | 36.69189 | 3.20957 | 85 ft | 15 kts | 168° |
| 2026-04-29 20:30 | 36.69137 | 3.20935 | 86 ft | 7 kts | 233° |
| 2026-04-29 20:30 | 36.69120 | 3.20866 | 85 ft | 9 kts | 264° |
| 2026-04-29 20:30 | 36.69120 | 3.20862 | 85 ft | 0 kts | 266° |
| 2026-04-29 20:31 | 36.69119 | 3.20802 | 85 ft | 28 kts | 270° |
| 2026-04-29 20:31 | 36.69140 | 3.20293 | 84 ft | 80 kts | 278° |
| 2026-04-29 20:31 | 36.69162 | 3.19709 | 72 ft | 46 kts | 272° |
| 2026-04-29 20:31 | 36.69174 | 3.19327 | 84 ft | 64 kts | 272° |
| 2026-04-29 20:32 | 36.69198 | 3.18444 | 84 ft | 137 kts | 272° |
| 2026-04-29 20:32 | 36.69235 | 3.17053 | 416 ft | 169 kts | 272° |
| 2026-04-29 20:32 | 36.69293 | 3.15582 | 1210 ft | 171 kts | 274° |
| 2026-04-29 20:32 | 36.69379 | 3.14097 | 2000 ft | 173 kts | 276° |
| 2026-04-29 20:33 | 36.69168 | 3.12558 | 2491 ft | 187 kts | 252° |
| 2026-04-29 20:33 | 36.68842 | 3.11036 | 3326 ft | 176 kts | 264° |
| 2026-04-29 20:33 | 36.68984 | 3.09669 | 4310 ft | 155 kts | 288° |
| 2026-04-29 20:33 | 36.69541 | 3.08352 | 4444 ft | 189 kts | 311° |
| 2026-04-29 20:34 | 36.70642 | 3.07249 | 4711 ft | 217 kts | 328° |
| 2026-04-29 20:34 | 36.72028 | 3.06244 | 5041 ft | 244 kts | 330° |
| 2026-04-29 20:34 | 36.73598 | 3.05180 | 5459 ft | 267 kts | 330° |
| 2026-04-29 20:34 | 36.75266 | 3.04067 | 6205 ft | 275 kts | 330° |
| 2026-04-29 20:35 | 36.76960 | 3.02938 | 7079 ft | 278 kts | 329° |
| 2026-04-29 20:35 | 36.78670 | 3.01798 | 8016 ft | 281 kts | 329° |
| 2026-04-29 20:35 | 36.80383 | 3.00656 | 8994 ft | 284 kts | 329° |
| 2026-04-29 20:35 | 36.82137 | 2.99485 | 9985 ft | 287 kts | 329° |
| 2026-04-29 20:36 | 36.83936 | 2.98282 | 10633 ft | 303 kts | 328° |
| 2026-04-29 20:36 | 36.85863 | 2.96987 | 11020 ft | 326 kts | 328° |
| 2026-04-29 20:36 | 36.87930 | 2.95600 | 11379 ft | 348 kts | 329° |
| 2026-04-29 20:36 | 36.90119 | 2.94134 | 11829 ft | 364 kts | 329° |
| 2026-04-29 20:37 | 36.92378 | 2.92624 | 12513 ft | 372 kts | 329° |
| 2026-04-29 20:37 | 36.94677 | 2.91088 | 13315 ft | 377 kts | 329° |
| 2026-04-29 20:37 | 36.97003 | 2.89530 | 14086 ft | 381 kts | 329° |
| 2026-04-29 20:37 | 36.99322 | 2.87976 | 14822 ft | 385 kts | 329° |
| 2026-04-29 20:38 | 37.01693 | 2.86385 | 15574 ft | 389 kts | 328° |
| 2026-04-29 20:38 | 37.04086 | 2.84777 | 16352 ft | 393 kts | 328° |
| 2026-04-29 20:38 | 37.06506 | 2.83149 | 17156 ft | 397 kts | 328° |
| 2026-04-29 20:38 | 37.08951 | 2.81504 | 17916 ft | 401 kts | 328° |
| 2026-04-29 20:39 | 37.11421 | 2.79840 | 18614 ft | 405 kts | 328° |
| 2026-04-29 20:39 | 37.13911 | 2.78162 | 19318 ft | 408 kts | 328° |
| 2026-04-29 20:39 | 37.16417 | 2.76472 | 20036 ft | 410 kts | 328° |
| 2026-04-29 20:39 | 37.18934 | 2.74773 | 20789 ft | 412 kts | 328° |
| 2026-04-29 20:40 | 37.21433 | 2.73085 | 21546 ft | 415 kts | 328° |
| 2026-04-29 20:40 | 37.23987 | 2.71358 | 22300 ft | 418 kts | 328° |
| 2026-04-29 20:40 | 37.26557 | 2.69619 | 23058 ft | 421 kts | 328° |
| 2026-04-29 20:40 | 37.29146 | 2.67866 | 23763 ft | 425 kts | 328° |
| 2026-04-29 20:41 | 37.31760 | 2.66094 | 24335 ft | 429 kts | 328° |
| 2026-04-29 20:41 | 37.34400 | 2.64302 | 24888 ft | 434 kts | 328° |
| 2026-04-29 20:41 | 37.37065 | 2.62493 | 25486 ft | 437 kts | 328° |
| 2026-04-29 20:41 | 37.39752 | 2.60668 | 26089 ft | 440 kts | 328° |
| 2026-04-29 20:42 | 37.42419 | 2.58855 | 26672 ft | 443 kts | 327° |
| 2026-04-29 20:42 | 37.45145 | 2.57000 | 27275 ft | 447 kts | 327° |
| 2026-04-29 20:42 | 37.47888 | 2.55132 | 27832 ft | 451 kts | 328° |
| 2026-04-29 20:42 | 37.50660 | 2.53242 | 28398 ft | 454 kts | 327° |
| 2026-04-29 20:43 | 37.53445 | 2.51342 | 28957 ft | 458 kts | 327° |
| 2026-04-29 20:43 | 37.56255 | 2.49424 | 29520 ft | 461 kts | 327° |
| 2026-04-29 20:43 | 37.59082 | 2.47492 | 30033 ft | 464 kts | 327° |
| 2026-04-29 20:43 | 37.61933 | 2.45542 | 30471 ft | 467 kts | 327° |
| 2026-04-29 20:44 | 37.64763 | 2.43605 | 30887 ft | 470 kts | 327° |
| 2026-04-29 20:44 | 37.67643 | 2.41631 | 31297 ft | 473 kts | 327° |
| 2026-04-29 20:44 | 37.70544 | 2.39642 | 31694 ft | 476 kts | 327° |
| 2026-04-29 20:44 | 37.73463 | 2.37638 | 32075 ft | 478 kts | 327° |
| 2026-04-29 20:45 | 37.76373 | 2.35629 | 32624 ft | 475 kts | 326° |
| 2026-04-29 20:45 | 37.79134 | 2.33378 | 33190 ft | 469 kts | 319° |
| 2026-04-29 20:45 | 37.81574 | 2.30686 | 33719 ft | 463 kts | 310° |
| 2026-04-29 20:45 | 37.83375 | 2.28227 | 34126 ft | 460 kts | 308° |
| 2026-04-29 20:46 | 37.84453 | 2.26626 | 34340 ft | 459 kts | 306° |
| 2026-04-29 20:46 | 37.86442 | 2.23490 | 34742 ft | 457 kts | 304° |
| 2026-04-29 20:46 | 37.88385 | 2.20302 | 35169 ft | 455 kts | 303° |
| 2026-04-29 20:47 | 37.90302 | 2.17123 | 35585 ft | 454 kts | 303° |
| 2026-04-29 20:47 | 37.92218 | 2.13956 | 35993 ft | 452 kts | 303° |
| 2026-04-29 20:47 | 37.94138 | 2.10807 | 36380 ft | 451 kts | 303° |
| 2026-04-29 20:47 | 37.96066 | 2.07668 | 36722 ft | 451 kts | 304° |
| 2026-04-29 20:48 | 37.97971 | 2.04582 | 37058 ft | 450 kts | 303° |
| 2026-04-29 20:48 | 37.99901 | 2.01463 | 37439 ft | 449 kts | 303° |
| 2026-04-29 20:48 | 38.01825 | 1.98355 | 37791 ft | 447 kts | 303° |
| 2026-04-29 20:48 | 38.03743 | 1.95255 | 38152 ft | 446 kts | 303° |
| 2026-04-29 20:49 | 38.05656 | 1.92159 | 38488 ft | 445 kts | 303° |
| 2026-04-29 20:49 | 38.07562 | 1.89071 | 38777 ft | 444 kts | 303° |
| 2026-04-29 20:49 | 38.09465 | 1.85981 | 38961 ft | 445 kts | 303° |
| 2026-04-29 20:49 | 38.11371 | 1.82884 | 39126 ft | 446 kts | 303° |
| 2026-04-29 20:50 | 38.13253 | 1.79822 | 39301 ft | 446 kts | 303° |
| 2026-04-29 20:50 | 38.15163 | 1.76713 | 39491 ft | 446 kts | 303° |
| 2026-04-29 20:50 | 38.17073 | 1.73607 | 39651 ft | 447 kts | 303° |
| 2026-04-29 20:50 | 38.18984 | 1.70491 | 39854 ft | 447 kts | 303° |
| 2026-04-29 20:51 | 38.20895 | 1.67366 | 39959 ft | 449 kts | 303° |
| 2026-04-29 20:51 | 38.22811 | 1.64231 | 39965 ft | 449 kts | 303° |
| 2026-04-29 20:51 | 38.26491 | 1.58205 | 39964 ft | 449 kts | 303° |
| 2026-04-29 20:52 | 38.30239 | 1.52056 | 39929 ft | 454 kts | 307° |
| 2026-04-29 20:52 | 38.32169 | 1.48887 | 40101 ft | 454 kts | 307° |
| 2026-04-29 20:52 | 38.34114 | 1.45690 | 40130 ft | 458 kts | 306° |
| 2026-04-29 20:53 | 38.38064 | 1.39184 | 40027 ft | 470 kts | 303° |
| 2026-04-29 20:53 | 38.42085 | 1.32542 | 39978 ft | 480 kts | 303° |
| 2026-04-29 20:54 | 38.46109 | 1.25903 | 39961 ft | 462 kts | 304° |
| 2026-04-29 20:54 | 38.48054 | 1.22692 | 39963 ft | 454 kts | 304° |
| 2026-04-29 20:55 | 38.51882 | 1.16349 | 39962 ft | 450 kts | 304° |
| 2026-04-29 20:55 | 38.55693 | 1.10010 | 39964 ft | 450 kts | 304° |
| 2026-04-29 20:56 | 38.59475 | 1.03710 | 39981 ft | 450 kts | 304° |
| 2026-04-29 20:56 | 38.63283 | 0.97357 | 39977 ft | 450 kts | 304° |
| 2026-04-29 20:57 | 38.67089 | 0.90995 | 39977 ft | 450 kts | 304° |
| 2026-04-29 20:57 | 38.70894 | 0.84626 | 39982 ft | 450 kts | 304° |
| 2026-04-29 20:58 | 38.74672 | 0.78288 | 39966 ft | 451 kts | 304° |